createdAt,value
2018-04-15T00:00:34.538Z,1013.45
2018-04-15T00:01:15.142Z,1013.52
2018-04-15T00:01:55.718Z,1013.51
2018-04-15T00:02:36.320Z,1013.46
2018-04-15T00:03:16.893Z,1013.46
2018-04-15T00:03:57.500Z,1013.54
2018-04-15T00:04:38.099Z,1013.47
2018-04-15T00:05:18.677Z,1013.45
2018-04-15T00:05:59.260Z,1013.45
2018-04-15T00:06:39.855Z,1013.49
2018-04-15T00:07:20.444Z,1013.49
2018-04-15T00:08:01.041Z,1013.45
2018-04-15T00:08:41.650Z,1013.48
2018-04-15T00:09:22.219Z,1013.5
2018-04-15T00:10:02.792Z,1013.46
2018-04-15T00:10:43.404Z,1013.48
2018-04-15T00:11:23.967Z,1013.46
2018-04-15T00:12:04.561Z,1013.48
2018-04-15T00:12:45.166Z,1013.48
2018-04-15T00:13:25.734Z,1013.48
2018-04-15T00:14:06.302Z,1013.46
2018-04-15T00:14:46.911Z,1013.47
2018-04-15T00:15:27.476Z,1013.48
2018-04-15T00:16:08.123Z,1013.44
2018-04-15T00:16:48.717Z,1013.42
2018-04-15T00:17:29.327Z,1013.45
2018-04-15T00:18:09.900Z,1013.42
2018-04-15T00:18:50.518Z,1013.44
2018-04-15T00:19:31.127Z,1013.46
2018-04-15T00:20:11.725Z,1013.39
2018-04-15T00:20:52.327Z,1013.42
2018-04-15T00:21:32.927Z,1013.4
2018-04-15T00:22:13.527Z,1013.41
2018-04-15T00:22:54.099Z,1013.4
2018-04-15T00:23:34.682Z,1013.41
2018-04-15T00:24:15.256Z,1013.43
2018-04-15T00:24:55.858Z,1013.41
2018-04-15T00:25:36.461Z,1013.41
2018-04-15T00:26:17.054Z,1013.41
2018-04-15T00:26:57.665Z,1013.41
2018-04-15T00:27:38.278Z,1013.39
2018-04-15T00:28:18.849Z,1013.39
2018-04-15T00:28:59.418Z,1013.39
2018-04-15T00:29:39.990Z,1013.38
2018-04-15T00:30:20.560Z,1013.34
2018-04-15T00:31:01.120Z,1013.36
2018-04-15T00:31:41.707Z,1013.3
2018-04-15T00:32:22.287Z,1013.35
2018-04-15T00:33:02.853Z,1013.28
2018-04-15T00:33:43.442Z,1013.28
2018-04-15T00:34:24.041Z,1013.29
2018-04-15T00:35:04.602Z,1013.28
2018-04-15T00:35:45.168Z,1013.26
2018-04-15T00:36:25.735Z,1013.28
2018-04-15T00:37:06.310Z,1013.23
2018-04-15T00:37:46.913Z,1013.22
2018-04-15T00:38:27.488Z,1013.23
2018-04-15T00:39:08.094Z,1013.21
2018-04-15T00:39:48.666Z,1013.21
2018-04-15T00:40:29.255Z,1013.22
2018-04-15T00:41:09.865Z,1013.24
2018-04-15T00:41:50.453Z,1013.22
2018-04-15T00:42:31.025Z,1013.19
2018-04-15T00:43:11.593Z,1013.2
2018-04-15T00:43:52.156Z,1013.17
2018-04-15T00:44:32.721Z,1013.19
2018-04-15T00:45:13.327Z,1013.23
2018-04-15T00:45:53.922Z,1013.24
2018-04-15T00:46:34.514Z,1013.24
2018-04-15T00:47:15.116Z,1013.24
2018-04-15T00:47:55.680Z,1013.27
2018-04-15T00:48:36.304Z,1013.22
2018-04-15T00:49:16.893Z,1013.21
2018-04-15T00:49:57.503Z,1013.19
2018-04-15T00:50:38.082Z,1013.23
2018-04-15T00:51:18.680Z,1013.17
2018-04-15T00:51:59.263Z,1013.2
2018-04-15T00:52:39.845Z,1013.17
2018-04-15T00:53:20.424Z,1013.14
2018-04-15T00:54:00.998Z,1013.09
2018-04-15T00:54:41.564Z,1013.1
2018-04-15T00:55:22.142Z,1013.1
2018-04-15T00:56:02.755Z,1013.1
2018-04-15T00:56:43.324Z,1013.07
2018-04-15T00:57:23.897Z,1013.06
2018-04-15T00:58:04.459Z,1013.06
2018-04-15T00:58:45.039Z,1013.05
2018-04-15T00:59:25.601Z,1013.03
2018-04-15T01:00:06.297Z,1013.03
2018-04-15T01:00:46.860Z,1013.05
2018-04-15T01:01:27.448Z,1013.03
2018-04-15T01:02:08.013Z,1013.06
2018-04-15T01:02:48.579Z,1013.1
2018-04-15T01:03:29.149Z,1013.04
2018-04-15T01:04:09.714Z,1013.06
2018-04-15T01:04:50.279Z,1013.1
2018-04-15T01:05:30.866Z,1013.11
2018-04-15T01:06:11.443Z,1013.09
2018-04-15T01:06:52.013Z,1013.07
2018-04-15T01:07:32.597Z,1013.11
2018-04-15T01:08:13.160Z,1013.15
2018-04-15T01:08:53.776Z,1013.1
2018-04-15T01:09:34.386Z,1013.1
2018-04-15T01:10:15.000Z,1013.08
2018-04-15T01:10:55.584Z,1013.06
2018-04-15T01:11:36.164Z,1013.08
2018-04-15T01:12:16.794Z,1013.07
2018-04-15T01:12:57.405Z,1013.07
2018-04-15T01:13:37.984Z,1013.04
2018-04-15T01:14:18.592Z,1013.05
2018-04-15T01:14:59.162Z,1013.04
2018-04-15T01:15:39.760Z,1013.06
2018-04-15T01:16:20.340Z,1013.09
2018-04-15T01:17:00.906Z,1013.08
2018-04-15T01:17:41.460Z,1013.08
2018-04-15T01:18:22.057Z,1013.05
2018-04-15T01:19:02.621Z,1013.09
2018-04-15T01:19:43.221Z,1013.06
2018-04-15T01:22:11.367Z,1013.05
2018-04-15T01:22:51.928Z,1013.03
2018-04-15T01:23:32.479Z,1013.01
2018-04-15T01:24:13.123Z,1013.01
2018-04-15T01:24:53.689Z,1012.98
2018-04-15T01:25:34.282Z,1013.01
2018-04-15T01:26:14.846Z,1012.99
2018-04-15T01:26:55.417Z,1013
2018-04-15T01:27:35.980Z,1013.08
2018-04-15T01:28:16.658Z,1013.07
2018-04-15T01:28:57.246Z,1013.02
2018-04-15T01:29:37.823Z,1013.06
2018-04-15T01:30:18.426Z,1013.03
2018-04-15T01:30:58.973Z,1013.06
2018-04-15T01:31:39.529Z,1013.05
2018-04-15T01:32:20.103Z,1013.04
2018-04-15T01:33:00.657Z,1013.06
2018-04-15T01:33:41.219Z,1013.03
2018-04-15T01:34:21.778Z,1013.06
2018-04-15T01:35:02.334Z,1013.1
2018-04-15T01:35:42.883Z,1013.03
2018-04-15T01:36:23.438Z,1013
2018-04-15T01:37:03.997Z,1013
2018-04-15T01:37:44.571Z,1012.98
2018-04-15T01:38:25.120Z,1012.92
2018-04-15T01:39:05.687Z,1012.93
2018-04-15T01:39:46.237Z,1012.88
2018-04-15T01:40:26.802Z,1012.92
2018-04-15T01:41:07.365Z,1012.89
2018-04-15T01:41:47.934Z,1012.88
2018-04-15T01:42:28.511Z,1012.84
2018-04-15T01:43:09.079Z,1012.85
2018-04-15T01:43:49.688Z,1012.85
2018-04-15T01:44:30.246Z,1012.88
2018-04-15T01:45:10.848Z,1012.87
2018-04-15T01:45:51.399Z,1012.87
2018-04-15T01:46:31.952Z,1012.83
2018-04-15T01:47:12.525Z,1012.86
2018-04-15T01:47:53.079Z,1012.8
2018-04-15T01:48:33.652Z,1012.8
2018-04-15T01:49:14.256Z,1012.82
2018-04-15T01:49:54.808Z,1012.8
2018-04-15T01:50:35.361Z,1012.78
2018-04-15T01:51:15.923Z,1012.77
2018-04-15T01:51:56.473Z,1012.79
2018-04-15T01:52:37.050Z,1012.76
2018-04-15T01:53:17.620Z,1012.79
2018-04-15T01:53:58.166Z,1012.76
2018-04-15T01:54:38.763Z,1012.78
2018-04-15T01:55:19.337Z,1012.75
2018-04-15T01:55:59.894Z,1012.72
2018-04-15T01:56:40.451Z,1012.69
2018-04-15T01:57:21.058Z,1012.73
2018-04-15T01:58:01.619Z,1012.71
2018-04-15T01:58:42.192Z,1012.68
2018-04-15T01:59:22.763Z,1012.69
2018-04-15T02:00:03.314Z,1012.64
2018-04-15T02:00:43.903Z,1012.65
2018-04-15T02:01:24.490Z,1012.61
2018-04-15T02:02:05.049Z,1012.66
2018-04-15T02:02:45.609Z,1012.61
2018-04-15T02:03:26.165Z,1012.6
2018-04-15T02:04:06.740Z,1012.61
2018-04-15T02:04:47.325Z,1012.56
2018-04-15T02:05:27.901Z,1012.56
2018-04-15T02:06:08.456Z,1012.53
2018-04-15T02:06:49.011Z,1012.55
2018-04-15T02:07:29.563Z,1012.55
2018-04-15T02:08:10.129Z,1012.51
2018-04-15T02:08:50.685Z,1012.51
2018-04-15T02:09:31.245Z,1012.54
2018-04-15T02:10:11.818Z,1012.5
2018-04-15T02:10:52.382Z,1012.46
2018-04-15T02:11:32.960Z,1012.52
2018-04-15T02:12:13.524Z,1012.46
2018-04-15T02:12:54.092Z,1012.5
2018-04-15T02:13:34.651Z,1012.46
2018-04-15T02:14:15.218Z,1012.46
2018-04-15T02:14:55.785Z,1012.43
2018-04-15T02:15:36.395Z,1012.47
2018-04-15T02:16:16.956Z,1012.44
2018-04-15T02:16:57.551Z,1012.44
2018-04-15T02:17:38.106Z,1012.42
2018-04-15T02:18:18.656Z,1012.45
2018-04-15T02:18:59.222Z,1012.41
2018-04-15T02:19:39.781Z,1012.44
2018-04-15T02:20:20.336Z,1012.38
2018-04-15T02:21:00.891Z,1012.36
2018-04-15T02:21:41.447Z,1012.39
2018-04-15T02:22:22.006Z,1012.38
2018-04-15T02:23:02.559Z,1012.35
2018-04-15T02:23:43.151Z,1012.39
2018-04-15T02:24:23.714Z,1012.38
2018-04-15T02:25:04.263Z,1012.37
2018-04-15T02:25:44.826Z,1012.38
2018-04-15T02:26:25.380Z,1012.41
2018-04-15T02:27:05.946Z,1012.35
2018-04-15T02:27:46.517Z,1012.38
2018-04-15T02:28:27.074Z,1012.39
2018-04-15T02:29:07.644Z,1012.39
2018-04-15T02:29:48.309Z,1012.38
2018-04-15T02:30:28.842Z,1012.4
2018-04-15T02:31:09.403Z,1012.39
2018-04-15T02:31:49.967Z,1012.4
2018-04-15T02:32:30.529Z,1012.34
2018-04-15T02:33:11.099Z,1012.39
2018-04-15T02:33:51.719Z,1012.34
2018-04-15T02:34:32.279Z,1012.36
2018-04-15T02:35:12.839Z,1012.31
2018-04-15T02:35:53.400Z,1012.36
2018-04-15T02:36:33.980Z,1012.34
2018-04-15T02:37:14.541Z,1012.31
2018-04-15T02:37:55.101Z,1012.36
2018-04-15T02:38:35.672Z,1012.38
2018-04-15T02:39:16.236Z,1012.33
2018-04-15T02:39:56.800Z,1012.32
2018-04-15T02:40:37.350Z,1012.31
2018-04-15T02:41:17.909Z,1012.26
2018-04-15T02:41:58.473Z,1012.3
2018-04-15T02:42:39.063Z,1012.31
2018-04-15T02:43:19.651Z,1012.36
2018-04-15T02:44:00.201Z,1012.33
2018-04-15T02:44:40.759Z,1012.32
2018-04-15T02:45:21.317Z,1012.28
2018-04-15T02:46:01.872Z,1012.32
2018-04-15T02:46:42.432Z,1012.34
2018-04-15T02:47:22.987Z,1012.31
2018-04-15T02:48:03.546Z,1012.33
2018-04-15T02:48:44.160Z,1012.34
2018-04-15T02:49:24.658Z,1012.33
2018-04-15T02:50:05.210Z,1012.32
2018-04-15T02:50:45.770Z,1012.31
2018-04-15T02:51:26.337Z,1012.36
2018-04-15T02:52:06.894Z,1012.3
2018-04-15T02:52:47.477Z,1012.26
2018-04-15T02:53:28.050Z,1012.27
2018-04-15T02:54:08.609Z,1012.33
2018-04-15T02:54:49.167Z,1012.26
2018-04-15T02:55:29.719Z,1012.3
2018-04-15T02:56:10.296Z,1012.26
2018-04-15T02:56:50.842Z,1012.28
2018-04-15T02:57:31.393Z,1012.25
2018-04-15T02:58:11.944Z,1012.26
2018-04-15T02:58:52.514Z,1012.23
2018-04-15T02:59:33.068Z,1012.23
2018-04-15T03:00:13.641Z,1012.23
2018-04-15T03:00:54.216Z,1012.2
2018-04-15T03:01:34.768Z,1012.18
2018-04-15T03:02:15.336Z,1012.23
2018-04-15T03:02:55.904Z,1012.19
2018-04-15T03:03:36.477Z,1012.21
2018-04-15T03:04:17.078Z,1012.16
2018-04-15T03:04:57.648Z,1012.16
2018-04-15T03:05:38.220Z,1012.12
2018-04-15T03:06:18.802Z,1012.13
2018-04-15T03:06:59.353Z,1012.14
2018-04-15T03:07:39.943Z,1012.12
2018-04-15T03:08:20.492Z,1012.15
2018-04-15T03:09:01.063Z,1012.1
2018-04-15T03:09:41.665Z,1012.11
2018-04-15T03:10:22.180Z,1012.16
2018-04-15T03:11:02.731Z,1012.14
2018-04-15T03:11:43.366Z,1012.14
2018-04-15T03:12:23.939Z,1012.13
2018-04-15T03:13:04.488Z,1012.12
2018-04-15T03:13:45.068Z,1012.12
2018-04-15T03:14:25.621Z,1012.12
2018-04-15T03:15:06.227Z,1012.14
2018-04-15T03:15:46.779Z,1012.1
2018-04-15T03:16:27.330Z,1012.15
2018-04-15T03:17:07.893Z,1012.13
2018-04-15T03:17:48.444Z,1012.15
2018-04-15T03:18:29.022Z,1012.13
2018-04-15T03:19:09.600Z,1012.14
2018-04-15T03:19:50.171Z,1012.15
2018-04-15T03:20:30.759Z,1012.2
2018-04-15T03:21:11.331Z,1012.14
2018-04-15T03:21:51.902Z,1012.16
2018-04-15T03:22:32.479Z,1012.14
2018-04-15T03:23:13.036Z,1012.12
2018-04-15T03:23:53.606Z,1012.14
2018-04-15T03:24:34.162Z,1012.15
2018-04-15T03:25:14.708Z,1012.15
2018-04-15T03:25:55.272Z,1012.13
2018-04-15T03:26:35.833Z,1012.17
2018-04-15T03:27:16.395Z,1012.18
2018-04-15T03:27:56.957Z,1012.16
2018-04-15T03:28:37.518Z,1012.15
2018-04-15T03:29:18.068Z,1012.18
2018-04-15T03:29:58.634Z,1012.21
2018-04-15T03:30:39.208Z,1012.17
2018-04-15T03:31:19.823Z,1012.16
2018-04-15T03:32:00.401Z,1012.16
2018-04-15T03:32:40.962Z,1012.16
2018-04-15T03:33:21.505Z,1012.17
2018-04-15T03:34:02.059Z,1012.16
2018-04-15T03:34:42.685Z,1012.16
2018-04-15T03:35:23.243Z,1012.21
2018-04-15T03:36:03.809Z,1012.18
2018-04-15T03:36:44.410Z,1012.2
2018-04-15T03:37:24.988Z,1012.18
2018-04-15T03:38:05.538Z,1012.17
2018-04-15T03:38:46.118Z,1012.17
2018-04-15T03:39:26.687Z,1012.13
2018-04-15T03:40:07.247Z,1012.16
2018-04-15T03:40:47.801Z,1012.11
2018-04-15T03:41:28.366Z,1012.17
2018-04-15T03:42:08.937Z,1012.12
2018-04-15T03:42:49.493Z,1012.16
2018-04-15T03:43:30.054Z,1012.17
2018-04-15T03:44:10.637Z,1012.09
2018-04-15T03:44:51.216Z,1012.13
2018-04-15T03:45:31.774Z,1012.08
2018-04-15T03:46:12.334Z,1012.08
2018-04-15T03:46:52.907Z,1012.08
2018-04-15T03:47:33.480Z,1012.1
2018-04-15T03:48:14.054Z,1012.14
2018-04-15T03:48:54.618Z,1012.13
2018-04-15T03:49:37.553Z,1012.11
2018-04-15T03:50:23.171Z,1012.14
2018-04-15T03:51:05.622Z,1012.17
2018-04-15T03:51:49.198Z,1012.1
2018-04-15T03:52:37.137Z,1012.07
2018-04-15T03:53:21.111Z,1012.05
2018-04-15T03:54:03.412Z,1012.05
2018-04-15T03:54:46.756Z,1012.04
2018-04-15T03:55:32.610Z,1012.01
2018-04-15T03:56:15.147Z,1011.99
2018-04-15T03:57:00.578Z,1012.01
2018-04-15T03:57:42.652Z,1012
2018-04-15T03:58:27.147Z,1012
2018-04-15T03:59:11.165Z,1011.96
2018-04-15T03:59:51.039Z,1011.94
2018-04-15T04:00:31.519Z,1011.97
2018-04-15T04:01:12.077Z,1011.95
2018-04-15T04:01:52.637Z,1011.94
2018-04-15T04:02:33.885Z,1011.93
2018-04-15T04:03:14.479Z,1011.89
2018-04-15T04:03:55.063Z,1011.86
2018-04-15T04:04:35.623Z,1011.88
2018-04-15T04:05:16.187Z,1011.86
2018-04-15T04:05:56.764Z,1011.86
2018-04-15T04:06:37.314Z,1011.83
2018-04-15T04:07:17.897Z,1011.84
2018-04-15T04:07:58.748Z,1011.81
2018-04-15T04:08:39.303Z,1011.85
2018-04-15T04:09:19.899Z,1011.76
2018-04-15T04:10:00.497Z,1011.84
2018-04-15T04:10:41.108Z,1011.8
2018-04-15T04:11:21.662Z,1011.86
2018-04-15T04:12:02.225Z,1011.83
2018-04-15T04:12:43.189Z,1011.77
2018-04-15T04:13:23.749Z,1011.8
2018-04-15T04:14:04.324Z,1011.81
2018-04-15T04:14:44.888Z,1011.77
2018-04-15T04:15:25.467Z,1011.79
2018-04-15T04:16:06.355Z,1011.76
2018-04-15T04:16:47.204Z,1011.77
2018-04-15T04:17:27.756Z,1011.8
2018-04-15T04:18:08.321Z,1011.8
2018-04-15T04:18:49.139Z,1011.78
2018-04-15T04:19:29.712Z,1011.82
2018-04-15T04:20:10.276Z,1011.81
2018-04-15T04:20:50.833Z,1011.77
2018-04-15T04:21:31.809Z,1011.78
2018-04-15T04:22:12.156Z,1011.81
2018-04-15T04:22:52.719Z,1011.84
2018-04-15T04:23:33.276Z,1011.81
2018-04-15T04:24:13.850Z,1011.81
2018-04-15T04:24:54.405Z,1011.85
2018-04-15T04:25:35.052Z,1011.83
2018-04-15T04:26:15.609Z,1011.8
2018-04-15T04:26:56.181Z,1011.79
2018-04-15T04:27:36.743Z,1011.78
2018-04-15T04:28:17.297Z,1011.79
2018-04-15T04:28:57.845Z,1011.79
2018-04-15T04:29:38.404Z,1011.77
2018-04-15T04:30:18.960Z,1011.84
2018-04-15T04:30:59.559Z,1011.84
2018-04-15T04:31:40.118Z,1011.84
2018-04-15T04:32:20.701Z,1011.85
2018-04-15T04:33:01.258Z,1011.85
2018-04-15T04:33:41.810Z,1011.87
2018-04-15T04:34:22.359Z,1011.9
2018-04-15T04:35:02.922Z,1011.9
2018-04-15T04:35:43.636Z,1011.84
2018-04-15T04:36:24.208Z,1011.87
2018-04-15T04:37:04.773Z,1011.85
2018-04-15T04:37:45.331Z,1011.87
2018-04-15T04:38:26.259Z,1011.82
2018-04-15T04:39:06.991Z,1011.79
2018-04-15T04:39:47.558Z,1011.82
2018-04-15T04:40:28.174Z,1011.83
2018-04-15T04:41:10.182Z,1011.82
2018-04-15T04:41:50.895Z,1011.82
2018-04-15T04:42:31.489Z,1011.79
2018-04-15T04:43:12.203Z,1011.83
2018-04-15T04:43:52.765Z,1011.82
2018-04-15T04:44:33.323Z,1011.83
2018-04-15T04:45:13.976Z,1011.83
2018-04-15T04:45:54.542Z,1011.82
2018-04-15T04:46:35.291Z,1011.84
2018-04-15T04:47:16.220Z,1011.85
2018-04-15T04:47:56.787Z,1011.86
2018-04-15T04:48:37.353Z,1011.81
2018-04-15T04:49:17.923Z,1011.85
2018-04-15T04:49:59.477Z,1011.82
2018-04-15T04:50:40.024Z,1011.81
2018-04-15T04:51:20.832Z,1011.78
2018-04-15T04:52:01.392Z,1011.8
2018-04-15T04:52:41.957Z,1011.76
2018-04-15T04:53:22.512Z,1011.75
2018-04-15T04:54:03.259Z,1011.74
2018-04-15T04:54:43.780Z,1011.76
2018-04-15T04:55:25.406Z,1011.77
2018-04-15T04:56:05.945Z,1011.77
2018-04-15T04:56:46.506Z,1011.76
2018-04-15T04:57:27.100Z,1011.78
2018-04-15T04:58:07.654Z,1011.78
2018-04-15T04:58:48.222Z,1011.79
2018-04-15T04:59:28.796Z,1011.75
2018-04-15T05:00:09.379Z,1011.77
2018-04-15T05:00:49.932Z,1011.74
2018-04-15T05:01:30.540Z,1011.75
2018-04-15T05:02:11.092Z,1011.74
2018-04-15T05:02:51.671Z,1011.72
2018-04-15T05:03:32.237Z,1011.68
2018-04-15T05:04:12.822Z,1011.64
2018-04-15T05:04:53.384Z,1011.65
2018-04-15T05:05:33.957Z,1011.62
2018-04-15T05:06:14.522Z,1011.61
2018-04-15T05:06:55.087Z,1011.59
2018-04-15T05:07:35.679Z,1011.59
2018-04-15T05:08:16.225Z,1011.64
2018-04-15T05:08:56.793Z,1011.64
2018-04-15T05:09:37.455Z,1011.6
2018-04-15T05:10:18.011Z,1011.61
2018-04-15T05:10:58.571Z,1011.66
2018-04-15T05:11:39.154Z,1011.65
2018-04-15T05:12:19.739Z,1011.61
2018-04-15T05:13:00.298Z,1011.59
2018-04-15T05:13:40.860Z,1011.58
2018-04-15T05:14:21.500Z,1011.57
2018-04-15T05:15:02.051Z,1011.52
2018-04-15T05:15:42.659Z,1011.53
2018-04-15T05:16:23.167Z,1011.55
2018-04-15T05:17:03.773Z,1011.55
2018-04-15T05:17:44.286Z,1011.55
2018-04-15T05:18:24.836Z,1011.56
2018-04-15T05:19:05.434Z,1011.56
2018-04-15T05:19:46.000Z,1011.58
2018-04-15T05:20:26.558Z,1011.61
2018-04-15T05:21:07.131Z,1011.59
2018-04-15T05:21:47.693Z,1011.6
2018-04-15T05:22:28.260Z,1011.61
2018-04-15T05:23:08.841Z,1011.59
2018-04-15T05:23:49.395Z,1011.65
2018-04-15T05:24:29.972Z,1011.59
2018-04-15T05:25:10.534Z,1011.64
2018-04-15T05:25:51.105Z,1011.6
2018-04-15T05:26:31.719Z,1011.6
2018-04-15T05:27:12.273Z,1011.6
2018-04-15T05:27:52.862Z,1011.6
2018-04-15T05:28:33.467Z,1011.64
2018-04-15T05:29:14.045Z,1011.63
2018-04-15T05:29:54.631Z,1011.64
2018-04-15T05:30:35.209Z,1011.64
2018-04-15T05:31:15.765Z,1011.65
2018-04-15T05:31:56.363Z,1011.64
2018-04-15T05:32:36.919Z,1011.62
2018-04-15T05:33:17.478Z,1011.64
2018-04-15T05:33:58.071Z,1011.61
2018-04-15T05:34:38.633Z,1011.62
2018-04-15T05:35:19.190Z,1011.67
2018-04-15T05:35:59.753Z,1011.7
2018-04-15T05:36:40.307Z,1011.63
2018-04-15T05:37:20.865Z,1011.62
2018-04-15T05:38:01.417Z,1011.69
2018-04-15T05:38:41.997Z,1011.64
2018-04-15T05:39:22.548Z,1011.66
2018-04-15T05:40:03.090Z,1011.7
2018-04-15T05:40:43.652Z,1011.7
2018-04-15T05:41:24.213Z,1011.75
2018-04-15T05:42:04.772Z,1011.76
2018-04-15T05:42:45.326Z,1011.77
2018-04-15T05:43:25.881Z,1011.75
2018-04-15T05:44:06.445Z,1011.78
2018-04-15T05:44:47.005Z,1011.78
2018-04-15T05:45:27.572Z,1011.73
2018-04-15T05:46:08.125Z,1011.76
2018-04-15T05:46:48.723Z,1011.76
2018-04-15T05:47:29.304Z,1011.78
2018-04-15T05:48:09.871Z,1011.8
2018-04-15T05:48:50.605Z,1011.79
2018-04-15T05:49:31.170Z,1011.8
2018-04-15T05:50:11.730Z,1011.85
2018-04-15T05:50:52.289Z,1011.82
2018-04-15T05:51:32.844Z,1011.81
2018-04-15T05:52:13.410Z,1011.77
2018-04-15T05:52:53.965Z,1011.79
2018-04-15T05:53:34.559Z,1011.81
2018-04-15T05:54:15.186Z,1011.77
2018-04-15T05:54:55.716Z,1011.81
2018-04-15T05:55:36.308Z,1011.73
2018-04-15T05:56:16.866Z,1011.69
2018-04-15T05:56:57.415Z,1011.7
2018-04-15T05:57:37.980Z,1011.7
2018-04-15T05:58:18.539Z,1011.68
2018-04-15T05:58:59.099Z,1011.69
2018-04-15T05:59:39.653Z,1011.69
2018-04-15T06:00:20.212Z,1011.67
2018-04-15T06:01:00.774Z,1011.66
2018-04-15T06:01:41.383Z,1011.67
2018-04-15T06:02:21.945Z,1011.63
2018-04-15T06:03:02.538Z,1011.58
2018-04-15T06:03:43.109Z,1011.59
2018-04-15T06:04:23.664Z,1011.59
2018-04-15T06:05:04.229Z,1011.55
2018-04-15T06:05:44.804Z,1011.52
2018-04-15T06:06:25.354Z,1011.51
2018-04-15T06:07:05.908Z,1011.51
2018-04-15T06:07:46.472Z,1011.51
2018-04-15T06:08:27.035Z,1011.46
2018-04-15T06:09:07.604Z,1011.46
2018-04-15T06:09:48.166Z,1011.47
2018-04-15T06:10:28.755Z,1011.44
2018-04-15T06:11:09.354Z,1011.44
2018-04-15T06:11:49.920Z,1011.44
2018-04-15T06:12:30.513Z,1011.42
2018-04-15T06:14:48.398Z,1011.41
2018-04-15T06:15:29.021Z,1011.28
2018-04-15T06:16:09.691Z,1011.32
2018-04-15T06:16:50.309Z,1011.36
2018-04-15T06:17:30.887Z,1011.35
2018-04-15T06:18:11.445Z,1011.39
2018-04-15T06:18:52.021Z,1011.37
2018-04-15T06:19:32.591Z,1011.39
2018-04-15T06:20:13.158Z,1011.43
2018-04-15T06:20:53.718Z,1011.41
2018-04-15T06:21:34.289Z,1011.39
2018-04-15T06:22:14.832Z,1011.43
2018-04-15T06:22:55.407Z,1011.46
2018-04-15T06:23:35.967Z,1011.44
2018-04-15T06:24:16.521Z,1011.47
2018-04-15T06:24:57.147Z,1011.43
2018-04-15T06:25:37.729Z,1011.41
2018-04-15T06:26:18.284Z,1011.4
2018-04-15T06:26:58.870Z,1011.36
2018-04-15T06:27:39.439Z,1011.36
2018-04-15T06:28:20.070Z,1011.37
2018-04-15T06:29:00.777Z,1011.33
2018-04-15T06:29:41.314Z,1011.34
2018-04-15T06:30:21.929Z,1011.3
2018-04-15T06:31:02.520Z,1011.34
2018-04-15T06:31:43.127Z,1011.3
2018-04-15T06:32:23.675Z,1011.34
2018-04-15T06:33:04.227Z,1011.35
2018-04-15T06:33:44.851Z,1011.32
2018-04-15T06:34:25.432Z,1011.4
2018-04-15T06:35:06.068Z,1011.34
2018-04-15T06:35:46.861Z,1011.33
2018-04-15T06:36:27.723Z,1011.29
2018-04-15T06:37:08.460Z,1011.27
2018-04-15T06:37:48.958Z,1011.25
2018-04-15T06:38:29.506Z,1011.27
2018-04-15T06:39:10.073Z,1011.26
2018-04-15T06:39:50.970Z,1011.2
2018-04-15T06:40:31.526Z,1011.2
2018-04-15T06:41:12.300Z,1011.19
2018-04-15T06:41:52.893Z,1011.13
2018-04-15T06:42:33.452Z,1011.12
2018-04-15T06:43:14.121Z,1011.06
2018-04-15T06:43:55.056Z,1011.11
2018-04-15T06:44:35.672Z,1011.12
2018-04-15T06:45:16.272Z,1011.11
2018-04-15T06:45:57.857Z,1011.15
2018-04-15T06:46:38.531Z,1011.13
2018-04-15T06:47:19.198Z,1011.19
2018-04-15T06:48:00.043Z,1011.15
2018-04-15T06:48:41.842Z,1011.15
2018-04-15T06:49:22.628Z,1011.15
2018-04-15T06:50:03.201Z,1011.15
2018-04-15T06:50:43.830Z,1011.11
2018-04-15T06:51:24.592Z,1011.13
2018-04-15T06:52:05.162Z,1011.13
2018-04-15T06:52:45.749Z,1011.14
2018-04-15T06:53:26.355Z,1011.07
2018-04-15T06:54:07.031Z,1011.1
2018-04-15T06:54:47.699Z,1011.13
2018-04-15T06:55:28.424Z,1011.17
2018-04-15T06:56:09.006Z,1011.17
2018-04-15T06:56:49.620Z,1011.12
2018-04-15T06:57:30.179Z,1011.14
2018-04-15T06:58:10.815Z,1011.09
2018-04-15T06:58:51.874Z,1011.04
2018-04-15T06:59:33.427Z,1011.04
2018-04-15T07:00:14.917Z,1010.98
2018-04-15T07:00:55.460Z,1011.01
2018-04-15T07:01:36.093Z,1011.01
2018-04-15T07:02:16.775Z,1011.01
2018-04-15T07:02:57.768Z,1010.96
2018-04-15T07:03:38.687Z,1010.96
2018-04-15T07:04:19.505Z,1010.92
2018-04-15T07:05:00.463Z,1010.92
2018-04-15T07:05:41.541Z,1010.92
2018-04-15T07:06:22.130Z,1010.92
2018-04-15T07:07:02.708Z,1010.93
2018-04-15T07:07:43.341Z,1010.87
2018-04-15T07:08:23.857Z,1010.93
2018-04-15T07:09:04.435Z,1010.91
2018-04-15T07:09:45.094Z,1010.84
2018-04-15T07:10:25.633Z,1010.82
2018-04-15T07:11:06.208Z,1010.85
2018-04-15T07:11:46.773Z,1010.82
2018-04-15T07:12:27.334Z,1010.75
2018-04-15T07:13:07.889Z,1010.77
2018-04-15T07:13:48.466Z,1010.74
2018-04-15T07:14:29.045Z,1010.76
2018-04-15T07:15:09.630Z,1010.75
2018-04-15T07:15:50.214Z,1010.75
2018-04-15T07:16:30.776Z,1010.74
2018-04-15T07:17:11.300Z,1010.7
2018-04-15T07:17:51.857Z,1010.73
2018-04-15T07:18:32.445Z,1010.8
2018-04-15T07:19:13.007Z,1010.75
2018-04-15T07:19:53.561Z,1010.72
2018-04-15T07:20:34.118Z,1010.71
2018-04-15T07:21:14.690Z,1010.7
2018-04-15T07:21:55.245Z,1010.71
2018-04-15T07:22:35.804Z,1010.69
2018-04-15T07:23:16.370Z,1010.7
2018-04-15T07:23:56.952Z,1010.67
2018-04-15T07:24:37.524Z,1010.68
2018-04-15T07:25:18.141Z,1010.67
2018-04-15T07:25:58.699Z,1010.67
2018-04-15T07:26:39.264Z,1010.64
2018-04-15T07:27:19.876Z,1010.59
2018-04-15T07:28:00.429Z,1010.57
2018-04-15T07:28:41.030Z,1010.61
2018-04-15T07:29:21.584Z,1010.62
2018-04-15T07:30:02.158Z,1010.64
2018-04-15T07:30:42.717Z,1010.68
2018-04-15T07:31:23.282Z,1010.66
2018-04-15T07:32:03.838Z,1010.66
2018-04-15T07:32:44.403Z,1010.63
2018-04-15T07:33:24.985Z,1010.63
2018-04-15T07:34:05.556Z,1010.59
2018-04-15T07:34:46.123Z,1010.6
2018-04-15T07:35:26.690Z,1010.58
2018-04-15T07:36:07.301Z,1010.57
2018-04-15T07:36:47.872Z,1010.53
2018-04-15T07:37:28.457Z,1010.57
2018-04-15T07:38:09.011Z,1010.54
2018-04-15T07:38:49.551Z,1010.55
2018-04-15T07:39:30.117Z,1010.48
2018-04-15T07:40:10.677Z,1010.52
2018-04-15T07:40:51.238Z,1010.51
2018-04-15T07:41:31.809Z,1010.53
2018-04-15T07:42:12.373Z,1010.55
2018-04-15T07:42:52.929Z,1010.51
2018-04-15T07:43:33.526Z,1010.52
2018-04-15T07:44:14.100Z,1010.5
2018-04-15T07:44:54.690Z,1010.51
2018-04-15T07:45:35.291Z,1010.48
2018-04-15T07:46:15.846Z,1010.52
2018-04-15T07:46:56.401Z,1010.46
2018-04-15T07:47:36.988Z,1010.45
2018-04-15T07:48:17.565Z,1010.39
2018-04-15T07:48:58.208Z,1010.38
2018-04-15T07:49:38.805Z,1010.41
2018-04-15T07:50:19.444Z,1010.4
2018-04-15T07:50:59.958Z,1010.41
2018-04-15T07:51:40.533Z,1010.41
2018-04-15T07:52:21.092Z,1010.42
2018-04-15T07:53:01.649Z,1010.44
2018-04-15T07:53:42.234Z,1010.44
2018-04-15T07:54:22.804Z,1010.45
2018-04-15T07:55:03.376Z,1010.39
2018-04-15T07:55:43.938Z,1010.34
2018-04-15T07:56:24.527Z,1010.36
2018-04-15T07:57:05.088Z,1010.35
2018-04-15T07:57:45.669Z,1010.38
2018-04-15T07:58:26.244Z,1010.34
2018-04-15T07:59:06.822Z,1010.37
2018-04-15T07:59:47.394Z,1010.38
2018-04-15T08:00:28.000Z,1010.39
2018-04-15T08:01:08.565Z,1010.43
2018-04-15T08:01:49.152Z,1010.41
2018-04-15T08:02:29.713Z,1010.42
2018-04-15T08:03:10.265Z,1010.46
2018-04-15T08:03:50.843Z,1010.39
2018-04-15T08:04:31.395Z,1010.33
2018-04-15T08:05:12.011Z,1010.33
2018-04-15T08:05:52.588Z,1010.34
2018-04-15T08:06:33.149Z,1010.31
2018-04-15T08:07:13.704Z,1010.35
2018-04-15T08:07:54.268Z,1010.33
2018-04-15T08:08:34.822Z,1010.31
2018-04-15T08:09:15.365Z,1010.32
2018-04-15T08:09:55.922Z,1010.3
2018-04-15T08:10:36.489Z,1010.32
2018-04-15T08:11:17.071Z,1010.27
2018-04-15T08:11:57.633Z,1010.26
2018-04-15T08:12:38.188Z,1010.23
2018-04-15T08:13:18.748Z,1010.25
2018-04-15T08:13:59.322Z,1010.18
2018-04-15T08:14:39.871Z,1010.19
2018-04-15T08:15:20.424Z,1010.21
2018-04-15T08:16:00.994Z,1010.19
2018-04-15T08:16:41.601Z,1010.21
2018-04-15T08:17:22.172Z,1010.15